Time;durP1;ratioP1;P1;durP2;ratioP2;P2;SDS_P1;SDS_P2;PMS_P1;PMS_P2;Temp;Humidity;BMP_temperature;BMP_pressure;BME280_temperature;BME280_humidity;BME280_pressure;Samples;Min_cycle;Max_cycle;Signal;HPM_P1;HPM_P2
2021/01/29 00:02:25;;;;;;;3.33;2.63;;;;;;;-143.37;100.00;65745.06;5091866;28;20208;-69
2021/01/29 00:04:51;;;;;;;3.50;3.20;;;;;;;-143.37;100.00;65745.06;5090983;28;20208;-70
2021/01/29 00:07:18;;;;;;;4.17;3.13;;;;;;;-143.37;100.00;65745.06;5091375;28;20200;-69
2021/01/29 00:09:44;;;;;;;4.47;3.40;;;;;;;-143.37;100.00;65745.06;5091337;28;20256;-71
2021/01/29 00:12:10;;;;;;;3.37;3.07;;;;;;;-143.37;100.00;65745.06;5085557;28;20267;-71
2021/01/29 00:14:36;;;;;;;4.33;3.23;;;;;;;-143.37;100.00;65745.06;5068570;28;20256;-71
2021/01/29 00:17:03;;;;;;;3.97;2.97;;;;;;;-143.37;100.00;65745.06;5070880;28;20763;-70
2021/01/29 00:19:30;;;;;;;3.03;2.73;;;;;;;-143.37;100.00;65745.06;5069746;28;20644;-71
2021/01/29 00:21:56;;;;;;;4.60;3.20;;;;;;;-143.37;100.00;65745.06;5071017;28;20296;-69
2021/01/29 00:24:22;;;;;;;4.63;2.80;;;;;;;-143.37;100.00;65745.06;5069892;28;20209;-69
2021/01/29 00:26:48;;;;;;;3.33;2.90;;;;;;;-143.37;100.00;65745.06;5070641;28;20216;-69
2021/01/29 00:29:14;;;;;;;3.30;2.70;;;;;;;-143.37;100.00;65745.06;5070801;28;20322;-69
2021/01/29 00:31:40;;;;;;;3.57;3.13;;;;;;;-143.37;100.00;65745.06;5071023;28;20674;-71
2021/01/29 00:34:06;;;;;;;3.43;3.10;;;;;;;-143.37;100.00;65745.06;5068584;28;20219;-71
2021/01/29 00:36:33;;;;;;;4.10;3.10;;;;;;;-143.37;100.00;65745.06;5070452;28;20220;-70
2021/01/29 00:38:59;;;;;;;3.47;2.97;;;;;;;-143.37;100.00;65745.06;5070744;28;20291;-70
2021/01/29 00:41:25;;;;;;;4.20;3.07;;;;;;;-143.37;100.00;65745.06;5070563;28;20740;-70
2021/01/29 00:43:51;;;;;;;4.33;3.53;;;;;;;-143.37;100.00;65745.06;5088218;28;20205;-70
2021/01/29 00:46:18;;;;;;;7.27;4.50;;;;;;;-143.37;100.00;65745.06;5090883;28;20204;-70
2021/01/29 00:48:46;;;;;;;5.00;3.40;;;;;;;-143.37;100.00;65745.06;5090720;28;20748;-70
2021/01/29 00:51:13;;;;;;;4.90;3.90;;;;;;;-143.37;100.00;65745.06;5092325;28;20239;-70
2021/01/29 00:53:39;;;;;;;5.27;4.03;;;;;;;-143.37;100.00;65745.06;5092224;28;20204;-70
2021/01/29 00:56:06;;;;;;;6.50;4.23;;;;;;;-143.37;100.00;65745.06;5093627;28;20305;-70
2021/01/29 00:58:33;;;;;;;7.10;4.77;;;;;;;-143.37;100.00;65745.06;5089344;28;20295;-70
2021/01/29 01:34:26;;;;;;;5.00;3.70;;;;;;;8.78;100.00;96594.84;5107072;27;20491;-70
2021/01/29 01:36:52;;;;;;;5.10;4.00;;;;;;;8.71;100.00;96589.22;5106454;28;20223;-69
2021/01/29 01:39:18;;;;;;;7.70;4.73;;;;;;;8.81;100.00;96580.41;5107738;28;20281;-69
2021/01/29 01:41:44;;;;;;;5.83;4.20;;;;;;;8.60;100.00;96577.22;5107567;28;20299;-70
2021/01/29 01:44:30;;;;;;;5.13;4.63;;;;;;;8.66;100.00;96570.28;5107023;28;20286;-71
2021/01/29 01:47:00;;;;;;;6.17;4.63;;;;;;;8.19;100.00;96557.50;5107224;28;20285;-70
2021/01/29 01:49:26;;;;;;;7.47;4.87;;;;;;;8.43;100.00;96550.97;5107459;28;20226;-70
2021/01/29 01:52:01;;;;;;;4.97;4.47;;;;;;;8.66;100.00;96554.59;5107389;28;20295;-69
2021/01/29 01:54:41;;;;;;;5.23;4.73;;;;;;;8.39;100.00;96554.81;5106819;28;20298;-71
2021/01/29 01:57:10;;;;;;;6.60;4.83;;;;;;;7.96;100.00;96547.56;5107184;28;20298;-70
2021/01/29 01:59:42;;;;;;;4.90;4.40;;;;;;;8.40;100.00;96534.41;5107596;28;20314;-70
2021/01/29 02:02:12;;;;;;;6.87;5.30;;;;;;;8.64;100.00;96529.41;5107362;28;20210;-70
2021/01/29 02:04:43;;;;;;;4.57;4.13;;;;;;;8.57;100.00;96526.53;5106117;28;20250;-69
2021/01/29 02:07:18;;;;;;;5.80;4.60;;;;;;;8.70;100.00;96505.16;5105928;28;20892;-69
2021/01/29 02:09:48;;;;;;;5.53;5.03;;;;;;;8.61;100.00;96499.88;5107115;28;20306;-69
2021/01/29 02:12:15;;;;;;;5.70;4.53;;;;;;;8.58;100.00;96503.34;5107219;28;20192;-69
2021/01/29 02:14:41;;;;;;;6.57;4.70;;;;;;;8.50;100.00;96506.34;5106850;27;20226;-69
2021/01/29 02:17:19;;;;;;;5.47;4.33;;;;;;;8.05;100.00;96496.78;5106495;28;20208;-69
2021/01/29 02:19:51;;;;;;;5.60;4.60;;;;;;;8.09;100.00;96489.41;5107220;28;20288;-69
2021/01/29 02:22:41;;;;;;;5.33;4.37;;;;;;;-143.37;100.00;65745.06;5107217;28;20300;-69
2021/01/29 02:25:07;;;;;;;5.77;4.50;;;;;;;8.35;100.00;96496.22;5106307;28;20628;-69
2021/01/29 02:27:40;;;;;;;5.50;4.50;;;;;;;8.45;100.00;96485.44;5106710;28;20299;-69
2021/01/29 02:30:30;;;;;;;6.47;4.67;;;;;;;8.44;100.00;96478.34;5108445;28;20318;-69
2021/01/29 02:33:15;;;;;;;4.77;4.23;;;;;;;8.46;100.00;96472.50;5110367;28;20287;-69
2021/01/29 02:35:53;;;;;;;8.23;4.47;;;;;;;8.46;100.00;96472.50;5111108;28;20212;-69
2021/01/29 02:38:32;;;;;;;5.07;4.40;;;;;;;8.48;100.00;96459.19;5098550;28;20751;-70
2021/01/29 02:41:39;;;;;;;5.47;4.50;;;;;;;8.48;100.00;96459.19;5085717;28;20228;-70
2021/01/29 02:44:19;;;;;;;5.53;4.70;;;;;;;8.39;100.00;96451.19;5097461;28;20298;-71
2021/01/29 02:47:13;;;;;;;5.03;4.03;;;;;;;8.39;100.00;96451.19;5088606;28;20208;-69
2021/01/29 02:49:58;;;;;;;3.90;3.57;;;;;;;8.42;100.00;96442.19;5086967;28;20224;-69
2021/01/29 02:52:55;;;;;;;6.40;4.90;;;;;;;8.42;100.00;96442.19;5090731;28;20223;-69
2021/01/29 02:55:36;;;;;;;7.03;4.23;;;;;;;8.44;100.00;96444.56;5092080;28;20300;-69
2021/01/29 02:58:50;;;;;;;5.53;4.37;;;;;;;8.44;100.00;96444.56;5093165;28;20295;-69
2021/01/29 03:01:54;;;;;;;5.17;4.20;;;;;;;8.44;100.00;96444.56;5069702;28;20682;-70
2021/01/29 03:04:42;;;;;;;4.37;3.97;;;;;;;8.44;100.00;96444.56;4989690;28;20266;-70
2021/01/29 03:07:22;;;;;;;6.33;4.10;;;;;;;8.44;100.00;96444.56;5083421;28;20318;-70
2021/01/29 03:10:00;;;;;;;4.00;3.60;;;;;;;8.44;100.00;96444.56;5092203;28;20784;-70
2021/01/29 03:12:45;;;;;;;5.23;4.10;;;;;;;8.44;100.00;96444.56;5084912;28;20275;-69
2021/01/29 03:15:37;;;;;;;4.80;4.33;;;;;;;8.44;100.00;96444.56;5071852;28;20208;-69
2021/01/29 03:18:15;;;;;;;4.90;4.27;;;;;;;8.44;100.00;96444.56;5071952;28;20757;-69
2021/01/29 03:20:49;;;;;;;5.90;4.77;;;;;;;8.44;100.00;96444.56;5072084;28;20320;-69
2021/01/29 03:23:25;;;;;;;4.90;4.40;;;;;;;8.59;100.00;96399.69;5071505;28;20211;-69
2021/01/29 03:25:56;;;;;;;7.50;4.80;;;;;;;8.59;100.00;96399.69;5071447;28;20826;-69
2021/01/29 03:28:27;;;;;;;4.97;4.20;;;;;;;8.59;100.00;96399.69;5071890;28;20293;-69
2021/01/29 03:30:56;;;;;;;6.83;5.00;;;;;;;8.59;100.00;96399.69;5071830;28;20316;-69
2021/01/29 03:33:28;;;;;;;5.80;5.20;;;;;;;8.77;100.00;96395.28;5070844;28;20897;-69
2021/01/29 03:36:01;;;;;;;6.43;5.10;;;;;;;8.94;100.00;96397.53;5071403;28;20758;-69
2021/01/29 03:38:35;;;;;;;6.03;4.83;;;;;;;8.94;100.00;96397.53;5071529;28;20213;-70
2021/01/29 03:41:24;;;;;;;8.07;5.20;;;;;;;8.94;100.00;96397.53;5071463;28;20268;-69
2021/01/29 03:43:56;;;;;;;6.63;5.20;;;;;;;8.94;100.00;96397.53;5088831;28;20210;-69
2021/01/29 03:46:43;;;;;;;6.57;5.10;;;;;;;8.94;100.00;96397.53;5091628;28;20212;-69
2021/01/29 03:49:21;;;;;;;6.43;4.97;;;;;;;8.94;100.00;96397.53;5091601;28;20724;-69
2021/01/29 03:51:55;;;;;;;6.57;5.10;;;;;;;8.94;100.00;96397.53;5091765;28;20303;-69
2021/01/29 03:54:24;;;;;;;5.37;4.37;;;;;;;8.94;100.00;96397.53;5090749;28;20586;-69
2021/01/29 03:57:02;;;;;;;6.20;5.00;;;;;;;8.94;100.00;96397.53;5089252;28;20701;-69
2021/01/29 03:59:33;;;;;;;6.43;4.73;;;;;;;8.94;100.00;96397.53;5091686;28;20259;-69
2021/01/29 04:02:16;;;;;;;6.17;5.00;;;;;;;8.94;100.00;96397.53;5091728;28;20213;-69
2021/01/29 04:04:56;;;;;;;5.20;4.70;;;;;;;9.28;100.00;96354.38;5091026;28;20287;-69
2021/01/29 04:07:37;;;;;;;8.07;4.90;;;;;;;9.28;100.00;96354.38;5090068;28;20235;-68
2021/01/29 04:10:10;;;;;;;6.27;4.90;;;;;;;9.28;100.00;96354.38;5092302;28;20344;-69
2021/01/29 04:12:50;;;;;;;5.33;4.60;;;;;;;9.28;100.00;96354.38;5084494;28;20279;-69
2021/01/29 04:15:28;;;;;;;6.80;5.10;;;;;;;9.31;100.00;96343.41;5072292;28;20299;-71
2021/01/29 04:18:01;;;;;;;5.77;4.90;;;;;;;9.31;100.00;96343.41;5070602;28;20679;-69
2021/01/29 04:21:00;;;;;;;6.43;5.60;;;;;;;9.45;100.00;96327.06;5070703;28;20303;-68
2021/01/29 04:23:42;;;;;;;6.63;5.93;;;;;;;9.45;100.00;96327.06;5070000;28;20224;-69
2021/01/29 04:26:16;;;;;;;9.07;5.90;;;;;;;9.45;100.00;96310.56;5070581;28;20303;-68
2021/01/29 04:28:48;;;;;;;5.40;4.90;;;;;;;9.48;100.00;96312.59;5070734;28;20300;-68
2021/01/29 04:31:17;;;;;;;6.60;4.87;;;;;;;9.43;100.00;96312.91;5070730;28;20212;-69
2021/01/29 04:33:47;;;;;;;6.93;5.87;;;;;;;9.43;100.00;96312.91;5069858;28;20584;-68
2021/01/29 04:36:18;;;;;;;7.27;5.93;;;;;;;9.43;100.00;96312.91;5069998;28;20232;-68
2021/01/29 04:38:49;;;;;;;6.23;5.63;;;;;;;9.46;100.00;96301.16;5070193;28;20229;-68
2021/01/29 04:41:31;;;;;;;7.33;6.40;;;;;;;9.46;100.00;96301.16;5070518;28;20217;-68
2021/01/29 04:44:24;;;;;;;8.00;6.87;;;;;;;9.46;100.00;96301.16;5088696;28;20228;-70
2021/01/29 04:47:06;;;;;;;8.27;7.43;;;;;;;9.55;100.00;96293.41;5090514;28;20626;-70
2021/01/29 04:49:51;;;;;;;8.23;6.90;;;;;;;9.41;100.00;96287.72;5090734;28;20698;-69
2021/01/29 04:52:20;;;;;;;8.27;7.47;;;;;;;9.53;100.00;96281.16;5089289;28;20231;-70
2021/01/29 04:54:55;;;;;;;9.90;8.90;;;;;;;9.53;100.00;96281.16;5090044;28;20230;-69
2021/01/29 04:57:46;;;;;;;11.07;9.77;;;;;;;9.53;100.00;96281.16;5090537;28;20295;-69
2021/01/29 05:00:33;;;;;;;13.83;10.67;;;;;;;9.46;100.00;96273.63;5090630;28;20778;-70
2021/01/29 05:03:12;;;;;;;11.57;10.37;;;;;;;9.46;100.00;96261.81;5090519;28;20236;-69
2021/01/29 05:06:03;;;;;;;11.60;10.50;;;;;;;9.46;100.00;96261.81;5090152;28;20253;-69
2021/01/29 05:08:41;;;;;;;11.80;10.60;;;;;;;9.37;100.00;96253.06;5088783;28;20239;-69
2021/01/29 05:11:41;;;;;;;10.80;9.67;;;;;;;9.39;100.00;96247.97;5090152;28;20701;-69
2021/01/29 05:14:35;;;;;;;11.10;10.00;;;;;;;9.40;100.00;96244.84;5069028;28;20308;-70
2021/01/29 05:17:34;;;;;;;10.33;9.33;;;;;;;9.29;100.00;96248.66;5070321;28;20639;-69
2021/01/29 05:20:32;;;;;;;12.07;10.43;;;;;;;9.53;100.00;96239.84;5070334;28;20240;-69
2021/01/29 05:23:07;;;;;;;11.13;8.83;;;;;;;9.46;100.00;96239.78;5069648;28;20292;-69
2021/01/29 05:25:54;;;;;;;10.87;9.87;;;;;;;9.57;100.00;96229.69;5068797;28;20232;-69
2021/01/29 05:28:30;;;;;;;10.50;9.40;;;;;;;9.57;100.00;96229.69;5068493;28;20205;-69
2021/01/29 05:31:38;;;;;;;12.93;10.50;;;;;;;9.57;100.00;96229.69;5069855;28;20225;-70
2021/01/29 05:34:13;;;;;;;9.20;8.37;;;;;;;9.04;100.00;96207.06;5056796;28;20233;-70
2021/01/29 05:37:01;;;;;;;12.20;9.47;;;;;;;9.04;100.00;96207.06;5069599;28;20240;-70
2021/01/29 05:39:55;;;;;;;10.00;9.00;;;;;;;9.04;100.00;96207.06;5069953;28;20217;-70
2021/01/29 05:43:06;;;;;;;11.77;9.60;;;;;;;9.05;100.00;96192.16;5075385;28;20609;-69
2021/01/29 05:45:49;;;;;;;9.63;8.60;;;;;;;8.90;100.00;96179.38;5078567;28;20245;-69
2021/01/29 05:48:49;;;;;;;12.27;9.03;;;;;;;8.50;100.00;96180.03;5093820;28;20208;-69
2021/01/29 05:51:34;;;;;;;11.17;7.93;;;;;;;8.50;100.00;96180.03;5095017;28;20240;-70
2021/01/29 05:54:25;;;;;;;8.57;7.07;;;;;;;8.50;100.00;96180.03;5091832;28;20292;-70
2021/01/29 05:57:25;;;;;;;8.40;7.50;;;;;;;8.50;100.00;96180.03;5092790;28;20212;-69
2021/01/29 06:00:26;;;;;;;7.67;6.70;;;;;;;8.50;100.00;96180.03;5086236;28;20221;-69
2021/01/29 06:03:12;;;;;;;8.37;7.30;;;;;;;8.40;100.00;96149.63;5066044;28;20265;-69
2021/01/29 06:05:50;;;;;;;6.87;6.17;;;;;;;8.40;100.00;96149.63;5086601;28;20701;-71
2021/01/29 06:08:54;;;;;;;7.73;6.70;;;;;;;8.40;100.00;96149.63;5088522;28;20819;-70
2021/01/29 06:11:35;;;;;;;8.80;6.57;;;;;;;8.40;100.00;96149.63;5089624;28;20634;-70
2021/01/29 06:14:07;;;;;;;8.53;7.27;;;;;;;8.40;100.00;96149.63;5068907;28;20228;-69
2021/01/29 06:17:21;;;;;;;7.53;6.47;;;;;;;8.40;100.00;96149.63;5067802;28;20244;-69
2021/01/29 06:20:14;;;;;;;9.83;7.50;;;;;;;8.40;100.00;96149.63;5050675;28;20240;-69
2021/01/29 06:23:05;;;;;;;8.93;7.77;;;;;;;8.05;100.00;96125.19;5071733;28;20253;-69
2021/01/29 06:25:56;;;;;;;10.00;7.20;;;;;;;8.05;100.00;96125.19;5071927;28;20205;-69
2021/01/29 06:28:56;;;;;;;9.23;7.10;;;;;;;8.05;100.00;96125.19;5073688;28;20625;-69
2021/01/29 06:31:49;;;;;;;10.10;7.00;;;;;;;8.05;100.00;96125.19;5073286;28;20209;-69
2021/01/29 06:34:45;;;;;;;7.90;6.13;;;;;;;8.05;100.00;96125.19;5072887;28;20725;-69
2021/01/29 06:37:23;;;;;;;6.80;6.10;;;;;;;8.05;100.00;96125.19;5073901;28;20219;-69
2021/01/29 06:40:02;;;;;;;8.23;6.60;;;;;;;8.46;100.00;96118.72;5072955;28;20319;-69
2021/01/29 06:42:46;;;;;;;7.03;6.33;;;;;;;8.19;100.00;96122.66;5080177;28;20235;-70
2021/01/29 06:45:29;;;;;;;9.13;7.17;;;;;;;8.44;100.00;96115.56;5092762;28;20300;-69
2021/01/29 06:48:05;;;;;;;9.53;6.93;;;;;;;8.43;100.00;96113.19;5092755;28;20200;-69
2021/01/29 06:50:50;;;;;;;10.87;7.63;;;;;;;8.39;100.00;96109.59;5091657;28;20720;-69
2021/01/29 06:53:22;;;;;;;10.93;7.60;;;;;;;8.66;100.00;96103.69;5092236;28;20314;-69
2021/01/29 06:56:08;;;;;;;8.80;7.03;;;;;;;8.81;100.00;96093.63;5093219;28;20307;-69
2021/01/29 06:58:53;;;;;;;7.77;5.73;;;;;;;9.14;100.00;96090.84;5093062;28;20421;-69
2021/01/29 07:01:38;;;;;;;6.57;5.70;;;;;;;9.90;100.00;96083.63;5093189;28;20292;-69
2021/01/29 07:04:37;;;;;;;6.47;5.70;;;;;;;10.04;100.00;96070.72;5092745;28;20207;-69
2021/01/29 07:07:19;;;;;;;6.33;5.40;;;;;;;10.04;100.00;96070.72;5094212;28;20642;-70
2021/01/29 07:10:02;;;;;;;5.37;4.87;;;;;;;10.17;100.00;96049.19;5094233;28;20915;-71
2021/01/29 07:12:54;;;;;;;9.27;5.00;;;;;;;10.17;100.00;96049.19;5085114;28;20288;-70
2021/01/29 07:15:29;;;;;;;5.17;4.13;;;;;;;10.17;100.00;96044.47;5073510;28;20630;-70
2021/01/29 07:18:16;;;;;;;4.20;3.50;;;;;;;10.17;100.00;96044.47;5088286;28;20291;-70
2021/01/29 07:21:15;;;;;;;4.60;3.33;;;;;;;10.17;100.00;96044.47;5092787;28;20228;-71
2021/01/29 07:23:54;;;;;;;5.20;3.20;;;;;;;10.17;100.00;96044.47;5092687;28;20260;-70
2021/01/29 07:26:57;;;;;;;2.60;2.40;;;;;;;10.11;100.00;96026.72;5091485;28;20257;-71
2021/01/29 07:29:33;;;;;;;3.70;1.80;;;;;;;10.33;100.00;96019.31;5095128;28;20277;-69
2021/01/29 07:32:08;;;;;;;5.47;1.90;;;;;;;10.21;100.00;96014.16;5096527;28;20290;-69
2021/01/29 07:34:49;;;;;;;2.73;1.87;;;;;;;10.21;100.00;96016.91;5094818;28;20220;-70
2021/01/29 07:37:27;;;;;;;3.40;2.07;;;;;;;10.28;100.00;95999.59;5093008;28;20299;-70
2021/01/29 07:40:01;;;;;;;1.73;1.50;;;;;;;10.18;100.00;95996.41;5090986;28;20283;-70
2021/01/29 07:42:51;;;;;;;1.63;1.50;;;;;;;10.24;100.00;95987.81;5091089;28;20657;-69
2021/01/29 07:45:32;;;;;;;4.43;1.50;;;;;;;10.20;100.00;95980.28;5092139;28;20204;-70
2021/01/29 07:48:29;;;;;;;1.83;1.17;;;;;;;10.20;100.00;95980.28;5091896;28;20593;-70
2021/01/29 07:51:04;;;;;;;1.73;1.10;;;;;;;10.00;100.00;95978.19;5091895;28;20221;-69
2021/01/29 07:53:40;;;;;;;2.20;1.03;;;;;;;9.99;100.00;95971.13;5090946;28;20263;-69
2021/01/29 07:56:34;;;;;;;1.23;0.90;;;;;;;9.98;100.00;95975.81;5090981;28;20258;-69
2021/01/29 07:59:19;;;;;;;1.67;1.00;;;;;;;10.13;100.00;95972.00;5091350;28;20594;-70
2021/01/29 08:02:06;;;;;;;1.37;1.07;;;;;;;10.20;100.00;95977.53;5091536;28;20248;-70
2021/01/29 08:04:47;;;;;;;2.40;0.83;;;;;;;10.09;100.00;95971.19;5089061;28;20208;-71
2021/01/29 08:07:19;;;;;;;0.80;0.80;;;;;;;10.24;100.00;95963.00;5081898;28;20971;-70
2021/01/29 08:09:54;;;;;;;3.13;0.93;;;;;;;10.24;100.00;95963.00;5087335;28;20313;-70
2021/01/29 08:12:22;;;;;;;0.90;0.90;;;;;;;10.24;100.00;95965.75;5087200;28;20196;-70
2021/01/29 08:15:27;;;;;;;3.23;1.20;;;;;;;10.27;100.00;95953.94;5086350;28;20228;-72
2021/01/29 08:17:56;;;;;;;1.13;1.00;;;;;;;10.27;100.00;95953.94;5086343;28;20705;-77
2021/01/29 08:20:58;;;;;;;1.10;1.00;;;;;;;10.27;100.00;95953.94;5087638;28;20274;-70
2021/01/29 08:23:46;;;;;;;1.27;1.07;;;;;;;10.27;100.00;95953.94;5088680;28;20200;-71
2021/01/29 08:26:35;;;;;;;1.87;0.90;;;;;;;10.27;100.00;95953.94;5089833;28;20317;-70
2021/01/29 08:29:30;;;;;;;1.70;0.93;;;;;;;10.27;100.00;95953.94;5091204;28;20208;-70
2021/01/29 08:32:24;;;;;;;1.53;0.70;;;;;;;10.27;100.00;95953.94;5072194;28;20596;-72
2021/01/29 08:34:56;;;;;;;0.93;0.70;;;;;;;10.39;100.00;95918.53;5084122;28;20320;-72
2021/01/29 08:37:33;;;;;;;1.77;1.00;;;;;;;10.56;100.00;95917.00;5087264;28;20839;-70
2021/01/29 08:40:02;;;;;;;0.97;0.73;;;;;;;10.56;100.00;95917.00;5087232;28;20270;-69
2021/01/29 08:43:06;;;;;;;1.83;0.70;;;;;;;10.56;100.00;95917.00;5078565;28;20212;-70
2021/01/29 08:45:50;;;;;;;0.87;0.50;;;;;;;10.56;100.00;95917.00;5075522;28;20289;-70
2021/01/29 08:48:29;;;;;;;0.50;0.50;;;;;;;10.98;100.00;95892.22;5089390;28;20201;-69
2021/01/29 08:51:08;;;;;;;0.90;0.50;;;;;;;10.98;100.00;95898.50;5090117;28;20304;-69
2021/01/29 08:53:45;;;;;;;1.87;0.50;;;;;;;11.00;100.00;95911.91;5089582;28;20247;-72
2021/01/29 08:56:35;;;;;;;2.10;1.03;;;;;;;11.02;100.00;95904.03;5090041;28;20247;-72
2021/01/29 08:59:06;;;;;;;1.90;0.53;;;;;;;10.94;100.00;95905.22;5091351;28;20203;-72
2021/01/29 09:01:52;;;;;;;0.87;0.30;;;;;;;10.94;100.00;95900.50;5093839;28;20254;-70
2021/01/29 09:04:39;;;;;;;0.80;0.57;;;;;;;10.95;100.00;95906.78;5084856;28;20201;-70
2021/01/29 09:07:16;;;;;;;0.53;0.30;;;;;;;10.95;100.00;95895.75;5096318;28;20189;-69
2021/01/29 09:09:43;;;;;;;2.90;0.70;;;;;;;11.13;100.00;95899.31;5091669;28;20289;-68
2021/01/29 09:12:26;;;;;;;1.00;0.60;;;;;;;11.13;100.00;95899.31;5096211;28;20840;-70
2021/01/29 09:15:16;;;;;;;2.27;0.60;;;;;;;11.13;100.00;95899.31;5089031;28;20231;-69
2021/01/29 09:17:55;;;;;;;0.47;0.47;;;;;;;10.81;100.00;95912.28;5087936;28;20875;-68
2021/01/29 09:20:27;;;;;;;1.40;0.50;;;;;;;10.97;100.00;95920.97;5091786;28;20239;-69
2021/01/29 09:23:03;;;;;;;0.93;0.63;;;;;;;10.93;100.00;95926.50;5081644;28;20205;-71
2021/01/29 09:25:53;;;;;;;0.47;0.40;;;;;;;10.88;100.00;95940.69;5085142;28;20212;-70
2021/01/29 09:28:27;;;;;;;0.97;0.40;;;;;;;10.98;100.00;95919.81;5078272;28;20223;-70
2021/01/29 09:30:58;;;;;;;0.87;0.40;;;;;;;11.20;100.00;95919.38;5084666;28;20251;-71
2021/01/29 09:33:33;;;;;;;0.63;0.33;;;;;;;11.22;100.00;95910.75;5084232;28;20285;-69
2021/01/29 09:36:01;;;;;;;0.50;0.50;;;;;;;11.32;100.00;95912.69;5082353;28;20212;-70
2021/01/29 09:38:37;;;;;;;0.67;0.53;;;;;;;11.33;100.00;95916.25;5086154;28;20204;-70
2021/01/29 09:41:56;;;;;;;2.87;0.43;;;;;;;11.28;100.00;95913.88;5086609;28;20224;-68
2021/01/29 09:44:32;;;;;;;1.13;0.60;;;;;;;11.33;100.00;95919.78;5063659;28;20607;-68
2021/01/29 09:47:02;;;;;;;0.60;0.40;;;;;;;11.34;100.00;95915.84;5065773;28;20240;-71
2021/01/29 09:49:34;;;;;;;0.53;0.40;;;;;;;11.37;100.00;95931.59;5066735;28;20236;-70
2021/01/29 09:52:37;;;;;;;0.87;0.50;;;;;;;11.40;100.00;95936.34;5067141;28;20213;-68
2021/01/29 09:55:20;;;;;;;1.07;0.40;;;;;;;11.31;100.00;95938.72;5078929;28;20228;-71
2021/01/29 09:58:19;;;;;;;0.40;0.40;;;;;;;11.22;100.00;95946.63;5093234;28;20295;-68
2021/01/29 10:00:58;;;;;;;0.80;0.40;;;;;;;11.26;100.00;95941.09;5084639;28;20228;-69
2021/01/29 10:03:31;;;;;;;1.70;0.63;;;;;;;11.24;100.00;95947.00;5093393;28;20233;-68
2021/01/29 10:06:16;;;;;;;0.93;0.50;;;;;;;11.22;100.00;95954.91;5092754;28;20628;-70
2021/01/29 10:08:48;;;;;;;3.73;0.50;;;;;;;11.14;100.00;95961.59;5092840;28;20246;-68
2021/01/29 10:11:24;;;;;;;1.50;0.47;;;;;;;11.18;100.00;95967.91;5094679;28;20291;-68
2021/01/29 10:14:13;;;;;;;0.67;0.67;;;;;;;11.08;100.00;95975.00;5094165;28;20739;-68
2021/01/29 10:17:01;;;;;;;1.63;0.70;;;;;;;11.24;100.00;95975.41;5091072;28;20201;-68
2021/01/29 10:19:27;;;;;;;1.03;0.73;;;;;;;11.19;100.00;95967.50;5080987;28;20235;-69
2021/01/29 10:21:56;;;;;;;1.23;0.40;;;;;;;11.37;100.00;95977.78;5093799;28;20607;-68
2021/01/29 10:24:52;;;;;;;1.00;0.50;;;;;;;11.40;100.00;95963.97;5091544;28;20702;-68
2021/01/29 10:27:21;;;;;;;0.97;0.40;;;;;;;11.31;100.00;95968.31;5094376;28;20239;-69
2021/01/29 10:30:02;;;;;;;0.50;0.40;;;;;;;11.41;100.00;95961.97;5092947;28;20266;-69
2021/01/29 10:32:33;;;;;;;1.00;0.50;;;;;;;11.47;100.00;95966.72;5092368;28;20636;-69
2021/01/29 10:35:07;;;;;;;1.27;0.50;;;;;;;11.54;100.00;95975.00;5090875;28;20220;-69
2021/01/29 10:37:45;;;;;;;0.63;0.47;;;;;;;11.67;100.00;95970.66;5092862;28;20244;-69
2021/01/29 10:40:28;;;;;;;0.70;0.50;;;;;;;12.40;100.00;95968.06;5086978;28;20231;-69
2021/01/29 10:43:16;;;;;;;0.90;0.60;;;;;;;12.57;100.00;95972.75;5098777;28;20201;-69
2021/01/29 10:45:56;;;;;;;0.53;0.50;;;;;;;12.36;100.00;95975.59;5099424;28;20255;-70
2021/01/29 10:48:43;;;;;;;2.53;0.47;;;;;;;12.13;100.00;95976.09;5099930;28;20277;-69
2021/01/29 10:51:23;;;;;;;0.43;0.40;;;;;;;12.22;100.00;95979.97;5092161;28;20774;-70
2021/01/29 10:53:59;;;;;;;1.53;0.60;;;;;;;12.84;100.00;95982.06;5092059;28;20224;-70
2021/01/29 10:56:50;;;;;;;0.50;0.40;;;;;;;13.31;100.00;95984.16;5093212;28;20196;-70
2021/01/29 10:59:29;;;;;;;0.67;0.40;;;;;;;12.79;100.00;95974.97;5092339;28;20232;-69
2021/01/29 11:02:00;;;;;;;0.77;0.40;;;;;;;13.13;100.00;95989.03;5092227;28;20285;-68
2021/01/29 11:04:32;;;;;;;0.47;0.30;;;;;;;13.32;100.00;95987.72;5091520;28;20254;-68
2021/01/29 11:07:22;;;;;;;1.93;0.40;;;;;;;13.19;100.00;95977.09;5090579;28;20259;-69
2021/01/29 11:10:14;;;;;;;0.70;0.20;;;;;;;13.16;100.00;95989.00;5092300;28;20228;-70
2021/01/29 11:12:50;;;;;;;0.40;0.30;;;;;;;13.30;100.00;95990.91;5090699;28;21065;-70
2021/01/29 11:15:19;;;;;;;0.50;0.30;;;;;;;12.85;100.00;95983.63;5090698;28;20793;-69
2021/01/29 11:18:06;;;;;;;1.60;0.40;;;;;;;12.42;100.00;95999.69;5091885;28;20200;-69
2021/01/29 11:20:36;;;;;;;5.23;0.50;;;;;;;12.38;100.00;95993.38;5091935;28;20254;-70
2021/01/29 11:23:27;;;;;;;1.30;0.30;;;;;;;12.51;100.00;96004.78;5091470;28;20774;-70
2021/01/29 11:26:15;;;;;;;1.23;0.40;;;;;;;12.75;100.00;96001.09;5091314;28;20717;-72
2021/01/29 11:28:44;;;;;;;0.93;0.37;;;;;;;13.02;100.00;96004.91;5093184;28;20213;-69
2021/01/29 11:31:19;;;;;;;1.20;0.63;;;;;;;13.22;100.00;95997.69;5100156;28;20224;-70
2021/01/29 11:33:49;;;;;;;0.73;0.30;;;;;;;13.15;100.00;95998.53;5092595;28;20281;-68
2021/01/29 11:36:29;;;;;;;3.00;0.50;;;;;;;13.34;100.00;96002.72;5093327;28;20219;-68
2021/01/29 11:39:10;;;;;;;1.03;0.33;;;;;;;13.38;100.00;95995.19;5093701;28;20207;-72
2021/01/29 11:41:48;;;;;;;0.83;0.33;;;;;;;12.95;100.00;95982.81;5091372;28;20620;-70
2021/01/29 11:44:47;;;;;;;1.13;0.40;;;;;;;12.95;100.00;96000.22;5072949;28;20197;-71
2021/01/29 11:47:19;;;;;;;2.20;0.47;;;;;;;12.95;100.00;95997.44;5076690;28;20648;-72
2021/01/29 11:50:02;;;;;;;2.00;0.50;;;;;;;12.65;100.00;95991.66;5090616;28;20255;-72
2021/01/29 11:52:43;;;;;;;0.93;0.60;;;;;;;12.53;100.00;96005.16;5091916;28;20295;-73
2021/01/29 11:55:26;;;;;;;1.57;0.47;;;;;;;12.34;100.00;96002.84;5091409;28;20220;-71
2021/01/29 11:58:15;;;;;;;1.03;0.50;;;;;;;12.55;100.00;96005.56;5071203;28;20717;-73
2021/01/29 12:00:49;;;;;;;1.70;0.40;;;;;;;12.30;100.00;96008.41;5072487;28;20232;-70
2021/01/29 12:03:32;;;;;;;2.53;0.50;;;;;;;12.45;100.00;96006.38;5088712;28;20277;-70
2021/01/29 12:06:08;;;;;;;1.47;0.50;;;;;;;12.76;100.00;96002.66;5090667;28;20224;-69
2021/01/29 12:08:38;;;;;;;2.13;0.70;;;;;;;12.79;100.00;95996.34;5089454;28;20261;-70
2021/01/29 12:11:27;;;;;;;1.10;0.60;;;;;;;12.60;100.00;95994.06;5090839;28;20881;-70
2021/01/29 12:14:12;;;;;;;1.50;0.73;;;;;;;12.48;100.00;96000.06;5090313;28;20218;-71
2021/01/29 12:16:39;;;;;;;4.47;1.03;;;;;;;12.56;100.00;95996.84;5091461;28;20239;-69
2021/01/29 12:19:09;;;;;;;5.70;0.67;;;;;;;12.57;100.00;96003.19;5073142;28;20206;-70
2021/01/29 12:21:44;;;;;;;7.83;0.90;;;;;;;12.59;100.00;96003.56;5072670;28;20206;-70
2021/01/29 12:24:38;;;;;;;3.83;0.70;;;;;;;12.44;100.00;96013.91;5074570;28;20201;-71
2021/01/29 12:27:21;;;;;;;5.03;0.90;;;;;;;12.63;100.00;96012.63;5072081;28;20209;-70
2021/01/29 12:30:02;;;;;;;7.20;1.50;;;;;;;12.50;100.00;96011.50;5070117;28;20702;-70
2021/01/29 12:32:37;;;;;;;3.33;1.03;;;;;;;12.31;100.00;96014.72;5070636;28;20295;-68
2021/01/29 12:35:24;;;;;;;3.23;0.70;;;;;;;12.67;100.00;96019.72;5070497;28;20655;-69
2021/01/29 12:38:07;;;;;;;2.17;0.90;;;;;;;13.17;100.00;96020.28;5069424;28;20213;-70
2021/01/29 12:40:45;;;;;;;5.33;1.20;;;;;;;13.03;100.00;96007.28;5079172;28;20387;-69
2021/01/29 12:43:17;;;;;;;3.23;0.80;;;;;;;12.95;100.00;96005.75;5089500;28;20252;-70
2021/01/29 12:45:55;;;;;;;4.20;0.77;;;;;;;12.80;100.00;96004.25;5090461;28;20795;-70
2021/01/29 12:48:51;;;;;;;2.77;0.90;;;;;;;12.79;100.00;96021.25;5088817;28;20242;-69
2021/01/29 12:51:28;;;;;;;6.80;0.90;;;;;;;12.76;100.00;96003.47;5090485;28;20200;-72
2021/01/29 12:54:00;;;;;;;5.57;1.40;;;;;;;13.05;100.00;96006.88;5090052;28;20224;-72
2021/01/29 12:56:36;;;;;;;4.40;1.33;;;;;;;12.97;100.00;96010.88;5090494;28;20593;-70
2021/01/29 12:59:04;;;;;;;6.87;1.77;;;;;;;13.12;100.00;96015.13;5090326;28;20199;-70
2021/01/29 13:01:33;;;;;;;2.93;1.10;;;;;;;13.17;100.00;96011.97;5089636;28;20205;-69